Sint-Lievens-Houtem, Belgium
Current Conditions -  °F | °C
As of 9:25 PM on Monday 26 Jan 2015 (Local Time) from EBCV Reporting Station
Scattered Clouds Scattered Clouds  
Wind Chill: 36°   Ceiling: Unl
Heat Index: 41°   Visibility: 6mi
Dew Point: 36°   Wind: 8mph
Humidity: 81%   Direction: 310°NW
Pressure: 30.15"   Gusts: NA
Location:  50.92°N, 3.86°E
Report Text: EBCV 262025Z AUTO 31007KT 9999 FEW030/// SCT039/// 05/02 Q1021 BLU
Loading
Personal Weather Stations






























Interactive Weather Map New forecast layout! Learn more

10-Day Weather Forecast

Advertisements
Track Severe Weather on mobile